createdAt,value
2019-01-13T00:01:53.742Z,2.67
2019-01-13T00:04:21.445Z,2.50
2019-01-13T00:06:49.100Z,3.10
2019-01-13T00:09:16.779Z,2.47
2019-01-13T00:11:44.517Z,2.70
2019-01-13T00:14:12.182Z,2.30
2019-01-13T00:16:39.850Z,2.67
2019-01-13T00:19:07.564Z,3.30
2019-01-13T00:21:35.241Z,2.30
2019-01-13T00:24:03.062Z,2.60
2019-01-13T00:26:30.746Z,2.50
2019-01-13T00:28:58.437Z,2.30
2019-01-13T00:31:26.058Z,2.43
2019-01-13T00:33:53.750Z,2.13
2019-01-13T00:36:21.381Z,2.07
2019-01-13T00:38:49.935Z,2.50
2019-01-13T00:41:17.600Z,2.43
2019-01-13T00:43:45.347Z,3.03
2019-01-13T00:46:13.101Z,2.93
2019-01-13T00:48:40.772Z,3.03
2019-01-13T00:51:08.409Z,2.63
2019-01-13T00:53:36.051Z,3.10
2019-01-13T00:56:04.163Z,2.57
2019-01-13T00:58:31.930Z,2.70
2019-01-13T01:00:59.599Z,2.47
2019-01-13T01:03:27.357Z,2.50
2019-01-13T01:05:55.118Z,2.53
2019-01-13T01:08:22.835Z,2.43
2019-01-13T01:10:50.490Z,3.20
2019-01-13T01:13:18.159Z,2.13
2019-01-13T01:15:45.811Z,2.50
2019-01-13T01:18:13.608Z,2.73
2019-01-13T01:20:41.897Z,2.90
2019-01-13T01:23:09.585Z,2.40
2019-01-13T01:25:37.225Z,2.50
2019-01-13T01:28:04.912Z,2.33
2019-01-13T01:30:33.529Z,2.70
2019-01-13T01:33:01.391Z,2.40
2019-01-13T01:35:29.066Z,2.03
2019-01-13T01:37:56.732Z,2.10
2019-01-13T01:40:24.382Z,2.20
2019-01-13T01:42:52.090Z,1.80
2019-01-13T01:45:20.362Z,2.73
2019-01-13T01:47:48.082Z,2.70
2019-01-13T01:50:15.987Z,2.07
2019-01-13T01:52:43.981Z,2.47
2019-01-13T01:55:13.990Z,2.50
2019-01-13T01:57:41.671Z,2.33
2019-01-13T02:00:15.121Z,2.50
2019-01-13T02:02:43.806Z,2.70
2019-01-13T02:05:11.671Z,2.50
2019-01-13T02:07:39.321Z,2.23
2019-01-13T02:10:10.091Z,2.77
2019-01-13T02:12:37.750Z,2.80
2019-01-13T02:15:08.031Z,2.20
2019-01-13T02:17:35.731Z,2.57
2019-01-13T02:20:05.829Z,3.10
2019-01-13T02:22:33.517Z,2.40
2019-01-13T02:25:01.224Z,2.83
2019-01-13T02:27:28.907Z,1.90
2019-01-13T02:29:56.594Z,2.20
2019-01-13T02:32:24.402Z,2.73
2019-01-13T02:34:52.029Z,2.30
2019-01-13T02:37:19.654Z,2.50
2019-01-13T02:39:47.332Z,1.90
2019-01-13T02:42:15.006Z,2.13
2019-01-13T02:44:42.660Z,2.30
2019-01-13T02:47:10.302Z,2.67
2019-01-13T02:49:37.942Z,2.20
2019-01-13T02:52:05.659Z,2.27
2019-01-13T02:54:33.317Z,2.10
2019-01-13T02:57:00.960Z,2.13
2019-01-13T02:59:28.641Z,1.87
2019-01-13T03:01:56.244Z,1.83
2019-01-13T03:04:23.910Z,1.97
2019-01-13T03:06:51.555Z,2.20
2019-01-13T03:09:19.205Z,1.90
2019-01-13T03:11:46.871Z,2.50
2019-01-13T03:14:14.588Z,2.00
2019-01-13T03:16:43.343Z,1.90
2019-01-13T03:19:11.142Z,2.07
2019-01-13T03:21:38.952Z,2.43
2019-01-13T03:24:06.605Z,1.60
2019-01-13T03:26:34.265Z,2.10
2019-01-13T03:29:02.000Z,1.70
2019-01-13T03:31:29.705Z,2.13
2019-01-13T03:33:57.338Z,1.80
2019-01-13T03:36:25.054Z,1.90
2019-01-13T03:38:52.744Z,2.00
2019-01-13T03:41:20.461Z,2.10
2019-01-13T03:43:48.160Z,1.87
2019-01-13T03:46:15.831Z,1.90
2019-01-13T03:48:43.495Z,2.33
2019-01-13T03:51:11.126Z,2.10
2019-01-13T03:53:38.794Z,2.60
2019-01-13T03:56:06.411Z,1.77
2019-01-13T03:58:34.090Z,2.90
2019-01-13T04:01:01.719Z,2.30
2019-01-13T04:03:29.389Z,1.97
2019-01-13T04:05:57.047Z,1.80
2019-01-13T04:08:24.726Z,1.97
2019-01-13T04:10:52.411Z,1.70
2019-01-13T04:13:20.103Z,1.83
2019-01-13T04:16:00.786Z,2.27
2019-01-13T04:18:28.489Z,1.70
2019-01-13T04:20:56.195Z,2.00
2019-01-13T04:23:23.997Z,1.80
2019-01-13T04:25:51.769Z,1.70
2019-01-13T04:28:19.487Z,2.07
2019-01-13T04:30:47.083Z,1.97
2019-01-13T04:33:14.831Z,1.90
2019-01-13T04:35:43.576Z,2.00
2019-01-13T04:38:11.256Z,2.00
2019-01-13T04:40:38.919Z,2.00
2019-01-13T04:43:06.595Z,2.80
2019-01-13T04:45:34.223Z,2.60
2019-01-13T04:48:01.896Z,2.07
2019-01-13T04:50:29.559Z,2.20
2019-01-13T04:52:57.261Z,2.50
2019-01-13T04:55:24.921Z,2.57
2019-01-13T04:57:52.592Z,2.33
2019-01-13T05:00:21.771Z,2.20
2019-01-13T05:02:49.608Z,2.07
2019-01-13T05:05:17.366Z,2.53
2019-01-13T05:07:45.069Z,2.60
2019-01-13T05:10:15.262Z,2.30
2019-01-13T05:12:42.965Z,2.87
2019-01-13T05:15:10.601Z,2.43
2019-01-13T05:17:38.378Z,2.97
2019-01-13T05:20:08.880Z,2.23
2019-01-13T05:22:36.528Z,2.20
2019-01-13T05:25:05.561Z,2.60
2019-01-13T05:27:33.271Z,2.60
2019-01-13T05:30:00.977Z,1.93
2019-01-13T05:32:28.681Z,2.00
2019-01-13T05:34:56.339Z,2.53
2019-01-13T05:37:24.014Z,2.13
2019-01-13T05:39:51.827Z,2.10
2019-01-13T05:42:19.458Z,2.60
2019-01-13T05:44:47.117Z,2.27
2019-01-13T05:47:14.767Z,2.13
2019-01-13T05:49:42.458Z,1.93
2019-01-13T05:52:10.171Z,2.77
2019-01-13T05:54:37.771Z,2.90
2019-01-13T05:57:05.442Z,2.40
2019-01-13T05:59:33.144Z,1.93
2019-01-13T06:02:00.836Z,2.70
2019-01-13T06:04:28.513Z,2.57
2019-01-13T06:06:56.195Z,2.43
2019-01-13T06:09:23.882Z,2.37
2019-01-13T06:11:51.785Z,2.33
2019-01-13T06:14:19.435Z,2.30
2019-01-13T06:16:47.080Z,2.17
2019-01-13T06:19:14.720Z,2.60
2019-01-13T06:21:42.385Z,2.60
2019-01-13T06:24:10.018Z,2.33
2019-01-13T06:26:37.722Z,2.40
2019-01-13T06:29:11.973Z,2.30
2019-01-13T06:31:40.040Z,2.63
2019-01-13T06:34:07.990Z,2.20
2019-01-13T06:36:35.752Z,3.10
2019-01-13T06:39:07.778Z,3.13
2019-01-13T06:41:35.902Z,2.60
2019-01-13T06:44:03.773Z,2.80
2019-01-13T06:46:32.606Z,2.90
2019-01-13T06:49:02.202Z,3.23
2019-01-13T06:51:30.070Z,2.70
2019-01-13T06:53:57.870Z,3.10
2019-01-13T06:56:25.758Z,2.90
2019-01-13T06:58:55.306Z,2.87
2019-01-13T07:01:25.094Z,4.10
2019-01-13T07:03:52.870Z,3.70
2019-01-13T07:06:20.576Z,3.57
2019-01-13T07:08:50.140Z,3.43
2019-01-13T07:11:18.064Z,4.30
2019-01-13T07:13:45.804Z,4.37
2019-01-13T07:16:13.572Z,5.00
2019-01-13T07:18:41.636Z,4.43
2019-01-13T07:21:09.334Z,4.17
2019-01-13T07:23:37.130Z,5.20
2019-01-13T07:26:04.842Z,5.30
2019-01-13T07:28:32.830Z,5.17
2019-01-13T07:31:00.626Z,5.30
2019-01-13T07:33:28.459Z,4.80
2019-01-13T07:35:56.290Z,4.67
2019-01-13T07:38:26.981Z,4.77
2019-01-13T07:40:54.699Z,4.20
2019-01-13T07:43:25.488Z,4.43
2019-01-13T07:45:53.221Z,3.93
2019-01-13T07:48:21.013Z,3.87
2019-01-13T07:50:48.911Z,3.60
2019-01-13T07:53:16.691Z,3.50
2019-01-13T07:55:44.413Z,3.50
2019-01-13T07:58:12.430Z,3.30
2019-01-13T08:00:40.352Z,2.80
2019-01-13T08:03:11.262Z,2.60
2019-01-13T08:05:39.135Z,2.60
2019-01-13T08:08:08.000Z,3.17
2019-01-13T08:10:38.019Z,2.00
2019-01-13T08:13:05.808Z,2.20
2019-01-13T08:15:33.664Z,2.40
2019-01-13T08:18:01.455Z,1.90
2019-01-13T08:20:32.097Z,2.30
2019-01-13T08:23:03.351Z,2.30
2019-01-13T08:25:31.358Z,2.37
2019-01-13T08:27:59.041Z,2.80
2019-01-13T08:30:26.778Z,2.37
2019-01-13T08:32:55.303Z,2.40
2019-01-13T08:35:23.089Z,2.80
2019-01-13T08:37:50.948Z,2.60
2019-01-13T08:40:20.794Z,2.77
2019-01-13T08:42:49.144Z,2.67
2019-01-13T08:45:22.643Z,2.83
2019-01-13T08:47:50.338Z,2.03
2019-01-13T08:50:23.006Z,2.20
2019-01-13T08:52:52.423Z,2.43
2019-01-13T08:55:24.150Z,2.43
2019-01-13T08:57:51.874Z,2.33
2019-01-13T09:00:23.639Z,2.43
2019-01-13T09:02:51.483Z,2.90
2019-01-13T09:05:19.506Z,2.70
2019-01-13T09:07:47.738Z,2.77
2019-01-13T09:10:16.464Z,2.67
2019-01-13T09:12:47.714Z,4.30
2019-01-13T09:15:18.152Z,3.20
2019-01-13T09:17:49.042Z,3.10
2019-01-13T09:20:19.566Z,3.10
2019-01-13T09:22:52.098Z,3.50
2019-01-13T09:25:19.954Z,3.47
2019-01-13T09:27:47.742Z,3.53
2019-01-13T09:30:20.812Z,3.73
2019-01-13T09:32:48.602Z,2.70
2019-01-13T09:35:16.967Z,3.10
2019-01-13T09:37:45.844Z,2.73
2019-01-13T09:40:16.333Z,2.90
2019-01-13T09:42:44.160Z,2.80
2019-01-13T09:45:14.012Z,2.37
2019-01-13T09:47:46.116Z,2.80
2019-01-13T09:50:15.768Z,2.93
2019-01-13T09:52:44.485Z,4.83
2019-01-13T09:55:13.714Z,3.87
2019-01-13T09:57:44.850Z,5.27
2019-01-13T10:00:34.082Z,2.80
2019-01-13T10:03:04.053Z,2.40
2019-01-13T10:05:31.807Z,2.03
2019-01-13T10:07:59.692Z,2.07
2019-01-13T10:10:27.434Z,1.77
2019-01-13T10:12:55.402Z,2.00
2019-01-13T10:15:23.324Z,1.67
2019-01-13T10:17:51.116Z,2.10
2019-01-13T10:20:19.121Z,1.70
2019-01-13T10:22:48.693Z,1.80
2019-01-13T10:25:16.511Z,1.40
2019-01-13T10:27:44.445Z,2.90
2019-01-13T10:30:16.713Z,2.13
2019-01-13T10:32:46.739Z,2.17
2019-01-13T10:35:26.280Z,1.83
2019-01-13T10:37:54.649Z,1.53
2019-01-13T10:40:24.176Z,1.10
2019-01-13T10:42:53.889Z,2.10
